Terminal Aerodrome Forecast
Issued by NWS Sioux Falls, SD

Home | Current Version | Previous Version | Text Only | Print | Product List | Glossary On
Versions: 1 2 3 4 5 6 7 8 9 10 11 12 13 14 15 16 17 18 19 20 21
000
FTUS43 KFSD 222326 CCA
TAFFSD
TAF COR
KFSD 222326Z 2300/2324 20010KT 6SM BR SCT015 OVC040
      TEMPO 2300/2302 BKN015
     FM230200 28007KT P6SM SCT015 BKN070
     FM230500 24004KT P6SM SKC
     FM231500 19006KT P6SM SCT250=

USA.gov is the U.S. government's official web portal to all federal, state and local government web resources and services.